Terminal Aerodrome Forecast
Issued by NWS

Home | Current Version | Previous Version | Text Only | Print | Product List | Glossary Off
Versions: 1 2 3 4 5 6 7 8 9 10 11 12 13 14 15 16

000
FTUS43 KICT 251100
TAFRSL
TAF
KRSL 251136Z 2512/2612 34010KT P6SM SKC
     FM251500 16006KT P6SM SKC
     FM251800 19014G20KT P6SM SKC
     FM260200 08008KT P6SM VCTS BKN050CB=

USA.gov is the U.S. government's official web portal to all federal, state and local government web resources and services.